createdAt,value
2023-03-22T00:07:23.059Z,10.6
2023-03-22T00:17:24.973Z,10.8
2023-03-22T00:27:26.931Z,10.9
2023-03-22T00:37:28.976Z,11
2023-03-22T00:47:31.412Z,11.1
2023-03-22T00:57:33.332Z,11.1
2023-03-22T01:07:35.894Z,10.9
2023-03-22T01:17:38.286Z,11
2023-03-22T01:50:38.876Z,11
2023-03-22T01:57:55.487Z,10.9
2023-03-22T02:07:57.224Z,10.9
2023-03-22T02:17:59.324Z,10.8
2023-03-22T02:28:01.535Z,10.7
2023-03-22T02:38:03.779Z,10.6
2023-03-22T03:08:09.674Z,10.5
2023-03-22T03:18:11.787Z,10.4
2023-03-22T03:38:16.479Z,10.3
2023-03-22T03:48:18.692Z,10.2
2023-03-22T03:58:21.241Z,10
2023-03-22T04:08:23.731Z,9.9
2023-03-22T04:18:26.218Z,9.8
2023-03-22T04:28:28.272Z,9.7
2023-03-22T04:48:32.567Z,9.6
2023-03-22T04:58:34.428Z,9.5
2023-03-22T05:08:36.399Z,9.4
2023-03-22T05:18:38.853Z,9.3
2023-03-22T05:28:40.790Z,9.4
2023-03-22T05:38:42.506Z,9.6
2023-03-22T05:48:44.506Z,9.9
2023-03-22T05:58:46.529Z,10.1
2023-03-22T06:08:48.265Z,10.3
2023-03-22T06:18:50.250Z,10.5
2023-03-22T06:28:52.007Z,10.6
2023-03-22T06:38:54.192Z,10.8
2023-03-22T06:48:56.384Z,10.9
2023-03-22T06:58:58.803Z,11
2023-03-22T07:19:03.159Z,11.2
2023-03-22T07:29:05.921Z,11.3
2023-03-22T07:39:08.328Z,11.3
2023-03-22T07:49:10.862Z,11.7
2023-03-22T07:59:13.205Z,12.1
2023-03-22T08:09:15.325Z,12.1
2023-03-22T08:39:23.417Z,12.1
2023-03-22T08:49:24.511Z,12.2
2023-03-22T08:59:26.220Z,12.1
2023-03-22T09:09:27.766Z,12.1
2023-03-22T09:29:32.360Z,12.3
2023-03-22T09:39:35.007Z,12.4
2023-03-22T09:49:50.678Z,12.2
2023-03-22T09:59:39.972Z,12.5
2023-03-22T10:09:42.564Z,12.3
2023-03-22T10:19:45.099Z,12.6
2023-03-22T10:39:48.839Z,12.8
2023-03-22T10:49:50.735Z,13
2023-03-22T10:59:52.909Z,13
2023-03-22T11:19:57.295Z,13.1
2023-03-22T11:29:59.616Z,13.2
2023-03-22T11:40:02.224Z,13.2
2023-03-22T12:00:06.594Z,12.9
2023-03-22T12:10:08.313Z,12.6
2023-03-22T12:20:10.740Z,12.6
2023-03-22T12:30:13.386Z,12.3
2023-03-22T12:50:18.384Z,12.7
2023-03-22T13:00:20.069Z,12.9
2023-03-22T13:10:21.860Z,12.6
2023-03-22T13:30:25.914Z,12.6
2023-03-22T13:50:29.773Z,12.6
2023-03-22T14:10:33.461Z,12.9
2023-03-22T14:20:35.803Z,12.9
2023-03-22T15:00:44.309Z,12.6
2023-03-22T15:10:46.953Z,12.5
2023-03-22T15:20:49.502Z,12.5
2023-03-22T15:40:54.202Z,12.7
2023-03-22T15:50:56.076Z,12.6
2023-03-22T16:00:58.002Z,12.6
2023-03-22T16:31:05.067Z,12.9
2023-03-22T16:41:06.861Z,12.9
2023-03-22T16:51:08.802Z,12.9
2023-03-22T17:01:10.687Z,12.9
2023-03-22T17:11:13.003Z,12.9
2023-03-22T17:21:15.089Z,12.9
2023-03-22T17:31:16.789Z,12.9
2023-03-22T17:41:18.549Z,12.9
2023-03-22T17:51:21.200Z,12.9
2023-03-22T18:01:23.603Z,13
2023-03-22T18:11:26.167Z,13
2023-03-22T18:21:27.977Z,13
2023-03-22T18:31:30.623Z,12.9
2023-03-22T18:41:41.113Z,12.8
2023-03-22T18:51:44.071Z,12.7
2023-03-22T19:01:37.540Z,12.7
2023-03-22T19:11:39.359Z,12.6
2023-03-22T19:21:41.362Z,12.6
2023-03-22T19:31:43.199Z,12.6
2023-03-22T19:41:56.186Z,12.8
2023-03-22T19:51:47.039Z,12.9
2023-03-22T20:01:49.050Z,12.9
2023-03-22T20:11:50.948Z,12.8
2023-03-22T20:21:53.424Z,12.5
2023-03-22T20:31:55.332Z,12.5
2023-03-22T20:41:57.568Z,12.5
2023-03-22T20:51:59.777Z,12.4
2023-03-22T21:02:01.488Z,12.4
2023-03-22T21:12:04.062Z,12.5
2023-03-22T21:22:06.265Z,12.4
2023-03-22T21:32:08.814Z,12.3
2023-03-22T21:52:13.017Z,11.9
2023-03-22T22:02:15.701Z,11.6
2023-03-22T22:12:18.325Z,11.4
2023-03-22T22:22:20.263Z,11.3
2023-03-22T22:32:22.222Z,11.3
2023-03-22T22:42:24.396Z,11.3
2023-03-22T22:52:26.897Z,11.1
2023-03-22T23:02:28.835Z,10.9
2023-03-22T23:12:31.519Z,10.8
2023-03-22T23:22:33.777Z,10.7
2023-03-22T23:32:36.421Z,10.6
2023-03-22T23:42:39.100Z,10.6
2023-03-22T23:52:40.990Z,10.6
